createdAt,value
2022-11-07T00:00:58.316Z,99929.03
2022-11-07T00:03:00.525Z,99933.56
2022-11-07T00:05:03.604Z,99932.78
2022-11-07T00:07:07.048Z,99948.28
2022-11-07T00:09:10.491Z,99943.66
2022-11-07T00:11:12.589Z,99947.09
2022-11-07T00:13:14.744Z,99942.50
2022-11-07T00:15:17.134Z,99946.25
2022-11-07T00:17:19.412Z,99946.31
2022-11-07T00:19:22.604Z,99936.56
2022-11-07T00:21:24.894Z,99943.75
2022-11-07T00:23:27.045Z,99950.34
2022-11-07T00:25:29.239Z,99943.16
2022-11-07T00:27:31.373Z,99944.13
2022-11-07T00:29:33.550Z,99942.47
2022-11-07T00:31:38.428Z,99956.22
2022-11-07T00:34:43.068Z,99954.84
2022-11-07T00:36:45.708Z,99944.81
2022-11-07T00:38:47.955Z,99948.69
2022-11-07T00:41:01.282Z,99942.72
2022-11-07T00:43:03.283Z,99952.41
2022-11-07T00:45:06.697Z,99952.25
2022-11-07T00:47:08.774Z,99951.53
2022-11-07T00:49:10.966Z,99946.13
2022-11-07T00:51:14.088Z,99940.44
2022-11-07T00:53:16.658Z,99929.09
2022-11-07T00:55:18.956Z,99934.72
2022-11-07T00:57:21.073Z,99928.53
2022-11-07T00:59:23.095Z,99930.50
2022-11-07T01:08:47.762Z,99928.97
2022-11-07T01:10:49.758Z,99921.72
2022-11-07T01:12:51.887Z,99918.88
2022-11-07T01:14:53.864Z,99914.84
2022-11-07T01:16:56.350Z,99920.19
2022-11-07T01:18:58.646Z,99913.03
2022-11-07T01:21:07.574Z,99913.91
2022-11-07T01:23:12.002Z,99913.03
2022-11-07T01:25:14.206Z,99924.88
2022-11-07T01:27:27.663Z,99932.00
2022-11-07T01:29:29.871Z,99930.13
2022-11-07T01:31:32.151Z,99923.69
2022-11-07T01:33:34.991Z,99924.72
2022-11-07T01:35:37.451Z,99919.47
2022-11-07T01:37:39.447Z,99921.41
2022-11-07T01:39:41.420Z,99918.66
2022-11-07T01:41:43.705Z,99906.22
2022-11-07T01:43:51.630Z,99912.81
2022-11-07T01:45:53.745Z,99914.63
2022-11-07T01:48:01.038Z,99901.94
2022-11-07T01:50:06.074Z,99904.41
2022-11-07T01:52:29.731Z,99904.84
2022-11-07T01:54:39.466Z,99910.41
2022-11-07T01:56:44.417Z,99911.28
2022-11-07T01:58:47.803Z,99917.56
2022-11-07T02:00:50.035Z,99924.63
2022-11-07T02:02:58.287Z,99923.09
2022-11-07T02:05:02.926Z,99926.53
2022-11-07T02:07:09.473Z,99931.22
2022-11-07T02:09:11.970Z,99923.09
2022-11-07T02:11:14.851Z,99924.34
2022-11-07T02:13:29.281Z,99933.31
2022-11-07T02:15:36.485Z,99914.34
2022-11-07T02:17:38.998Z,99922.28
2022-11-07T02:19:44.649Z,99916.22
2022-11-07T02:21:59.110Z,99928.22
2022-11-07T02:24:07.405Z,99926.38
2022-11-07T02:26:09.759Z,99930.84
2022-11-07T02:28:14.831Z,99932.44
2022-11-07T02:30:22.664Z,99922.88
2022-11-07T02:32:25.407Z,99913.53
2022-11-07T02:34:27.496Z,99919.16
2022-11-07T02:36:29.474Z,99917.25
2022-11-07T02:38:35.231Z,99929.88
2022-11-07T02:40:38.313Z,99932.66
2022-11-07T02:42:46.678Z,99936.38
2022-11-07T02:44:49.189Z,99939.97
2022-11-07T02:46:51.457Z,99937.38
2022-11-07T02:48:59.249Z,99929.59
2022-11-07T02:51:01.397Z,99928.34
2022-11-07T02:53:03.480Z,99932.81
2022-11-07T02:55:07.746Z,99935.16
2022-11-07T02:57:09.833Z,99925.56
2022-11-07T02:59:11.908Z,99917.81
2022-11-07T03:01:14.559Z,99921.69
2022-11-07T03:03:17.278Z,99925.81
2022-11-07T03:05:21.055Z,99927.91
2022-11-07T03:07:23.161Z,99934.38
2022-11-07T03:09:25.166Z,99939.25
2022-11-07T03:11:27.453Z,99946.50
2022-11-07T03:13:29.490Z,99944.47
2022-11-07T03:15:31.631Z,99944.59
2022-11-07T03:17:34.114Z,99943.13
2022-11-07T03:19:36.258Z,99943.84
2022-11-07T03:21:38.063Z,99944.75
2022-11-07T03:23:40.413Z,99931.34
2022-11-07T03:25:42.735Z,99934.06
2022-11-07T03:27:51.125Z,99940.28
2022-11-07T03:29:53.335Z,99942.81
2022-11-07T03:31:55.400Z,99941.22
2022-11-07T03:33:57.621Z,99944.00
2022-11-07T03:35:59.840Z,99941.56
2022-11-07T03:38:01.897Z,99945.97
2022-11-07T03:40:04.784Z,99951.22
2022-11-07T03:42:07.153Z,99948.56
2022-11-07T03:44:12.054Z,99954.88
2022-11-07T03:46:15.048Z,99960.13
2022-11-07T03:48:17.556Z,99956.75
2022-11-07T03:50:21.337Z,99958.34
2022-11-07T03:52:23.455Z,99961.88
2022-11-07T03:54:25.561Z,99961.88
2022-11-07T03:56:27.853Z,99968.09
2022-11-07T03:58:29.940Z,99967.03
2022-11-07T04:00:32.234Z,99958.78
2022-11-07T04:02:34.570Z,99953.44
2022-11-07T04:04:37.284Z,99952.63
2022-11-07T04:06:39.321Z,99951.50
2022-11-07T04:08:41.716Z,99959.34
2022-11-07T04:10:43.879Z,99958.56
2022-11-07T04:13:04.290Z,99958.69
2022-11-07T04:15:25.009Z,99957.22
2022-11-07T04:17:28.430Z,99962.84
2022-11-07T04:19:30.515Z,99968.25
2022-11-07T04:21:32.405Z,99971.00
2022-11-07T04:23:34.882Z,99973.69
2022-11-07T04:25:55.471Z,99978.28
2022-11-07T04:27:57.862Z,99974.56
2022-11-07T04:30:19.302Z,99972.09
2022-11-07T04:32:23.423Z,99969.44
2022-11-07T04:34:25.349Z,99973.84
2022-11-07T04:36:27.714Z,99969.25
2022-11-07T04:38:29.792Z,99972.09
2022-11-07T04:40:32.032Z,99973.63
2022-11-07T04:42:34.374Z,99969.25
2022-11-07T04:44:36.619Z,99973.69
2022-11-07T04:46:38.617Z,99963.84
2022-11-07T04:48:40.573Z,99970.25
2022-11-07T04:50:43.072Z,99965.88
2022-11-07T04:52:48.850Z,99964.00
2022-11-07T04:54:51.119Z,99964.06
2022-11-07T04:56:53.220Z,99964.78
2022-11-07T04:58:55.567Z,99966.59
2022-11-07T05:00:58.203Z,99964.91
2022-11-07T05:03:00.833Z,99960.63
2022-11-07T05:05:02.887Z,99969.66
2022-11-07T05:07:05.210Z,99959.84
2022-11-07T05:09:09.629Z,99964.34
2022-11-07T05:11:12.321Z,99967.03
2022-11-07T05:13:17.088Z,99967.97
2022-11-07T05:15:19.747Z,99967.03
2022-11-07T05:17:27.968Z,99969.59
2022-11-07T05:19:30.410Z,99966.81
2022-11-07T05:21:32.573Z,99972.34
2022-11-07T05:23:34.902Z,99973.22
2022-11-07T05:25:36.980Z,99974.22
2022-11-07T05:27:39.271Z,99972.50
2022-11-07T05:29:41.560Z,99967.91
2022-11-07T05:31:44.046Z,99974.03
2022-11-07T05:33:47.577Z,99975.88
2022-11-07T05:35:49.626Z,99967.56
2022-11-07T05:37:51.671Z,99967.56
2022-11-07T05:39:55.140Z,99972.88
2022-11-07T05:41:57.140Z,99966.69
2022-11-07T05:43:59.081Z,99975.66
2022-11-07T05:46:01.906Z,99981.06
2022-11-07T05:48:07.130Z,99981.47
2022-11-07T05:50:09.464Z,99989.22
2022-11-07T05:52:11.493Z,99980.94
2022-11-07T05:54:13.738Z,99984.63
2022-11-07T05:56:15.839Z,99988.00
2022-11-07T05:58:18.022Z,99983.44
2022-11-07T06:00:20.473Z,99985.47
2022-11-07T06:02:22.428Z,99982.47
2022-11-07T06:04:24.605Z,99988.53
2022-11-07T06:06:26.432Z,99986.72
2022-11-07T06:08:28.445Z,99983.00
2022-11-07T06:10:30.278Z,99983.91
2022-11-07T06:12:32.366Z,99994.44
2022-11-07T06:14:34.368Z,99995.59
2022-11-07T06:16:36.529Z,100004.69
2022-11-07T06:18:41.594Z,100003.00
2022-11-07T06:20:44.144Z,100000.31
2022-11-07T06:22:46.278Z,100011.16
2022-11-07T06:24:48.399Z,100009.41
2022-11-07T06:26:50.534Z,100005.09
2022-11-07T06:28:52.959Z,100008.47
2022-11-07T06:30:59.875Z,100003.06
2022-11-07T06:33:06.462Z,100013.66
2022-11-07T06:35:08.741Z,100012.72
2022-11-07T06:37:10.494Z,100011.94
2022-11-07T06:39:12.535Z,100013.63
2022-11-07T06:41:15.281Z,100012.50
2022-11-07T06:43:19.887Z,100017.84
2022-11-07T06:45:22.380Z,100018.69
2022-11-07T06:47:24.219Z,100021.16
2022-11-07T06:49:26.179Z,100019.41
2022-11-07T06:51:28.346Z,100017.53
2022-11-07T06:53:30.537Z,100024.47
2022-11-07T06:55:34.384Z,100015.56
2022-11-07T06:57:36.183Z,100017.53
2022-11-07T06:59:38.470Z,100013.72
2022-11-07T07:01:40.569Z,100023.50
2022-11-07T07:03:43.679Z,100018.88
2022-11-07T07:05:45.489Z,100017.84
2022-11-07T07:07:47.335Z,100026.69
2022-11-07T07:09:49.180Z,100025.63
2022-11-07T07:11:51.083Z,100020.22
2022-11-07T07:13:53.093Z,100030.22
2022-11-07T07:15:57.915Z,100031.75
2022-11-07T07:18:01.204Z,100024.66
2022-11-07T07:20:07.196Z,100019.34
2022-11-07T07:22:13.881Z,100030.94
2022-11-07T07:24:15.707Z,100028.78
2022-11-07T07:26:17.754Z,100024.94
2022-11-07T07:28:19.626Z,100030.13
2022-11-07T07:30:21.445Z,100023.47
2022-11-07T07:32:25.374Z,100025.31
2022-11-07T07:34:27.152Z,100028.63
2022-11-07T07:36:29.295Z,100026.78
2022-11-07T07:38:31.693Z,100035.91
2022-11-07T07:40:33.806Z,100025.03
2022-11-07T07:42:41.277Z,100028.31
2022-11-07T07:44:43.286Z,100027.75
2022-11-07T07:46:46.958Z,100023.22
2022-11-07T07:48:49.126Z,100021.03
2022-11-07T07:50:51.061Z,100027.28
2022-11-07T07:53:00.789Z,100028.25
2022-11-07T07:55:09.127Z,100025.34
2022-11-07T07:57:11.038Z,100032.59
2022-11-07T07:59:12.977Z,100036.22
2022-11-07T08:01:16.061Z,100039.63
2022-11-07T08:03:18.324Z,100042.38
2022-11-07T08:05:20.303Z,100048.53
2022-11-07T08:07:22.196Z,100044.06
2022-11-07T08:09:24.013Z,100042.19
2022-11-07T08:11:25.962Z,100044.72
2022-11-07T08:13:30.249Z,100047.59
2022-11-07T08:15:32.220Z,100048.41
2022-11-07T08:17:34.323Z,100051.00
2022-11-07T08:19:36.677Z,100050.75
2022-11-07T08:21:38.756Z,100045.47
2022-11-07T08:23:40.839Z,100047.22
2022-11-07T08:25:43.139Z,100051.63
2022-11-07T08:27:45.104Z,100047.72
2022-11-07T08:29:47.077Z,100048.91
2022-11-07T08:31:50.799Z,100045.34
2022-11-07T08:33:53.118Z,100055.94
2022-11-07T08:36:00.830Z,100063.25
2022-11-07T08:38:02.713Z,100048.47
2022-11-07T08:40:05.118Z,100054.63
2022-11-07T08:42:06.998Z,100054.47
2022-11-07T08:44:10.119Z,100062.56
2022-11-07T08:46:12.176Z,100050.81
2022-11-07T08:48:15.429Z,100049.00
2022-11-07T08:50:17.530Z,100051.59
2022-11-07T08:52:19.820Z,100053.22
2022-11-07T08:54:21.876Z,100054.31
2022-11-07T08:56:23.851Z,100063.31
2022-11-07T08:58:29.843Z,100069.00
2022-11-07T09:00:32.645Z,100066.09
2022-11-07T09:04:56.564Z,100063.53
2022-11-07T09:06:58.450Z,100063.25
2022-11-07T09:09:00.503Z,100067.03
2022-11-07T09:11:04.262Z,100068.94
2022-11-07T09:13:06.013Z,100065.34
2022-11-07T09:15:08.483Z,100070.56
2022-11-07T09:17:35.649Z,100081.53
2022-11-07T09:19:37.650Z,100075.81
2022-11-07T09:21:40.068Z,100073.03
2022-11-07T09:23:42.062Z,100077.19
2022-11-07T09:25:44.203Z,100081.66
2022-11-07T09:27:47.429Z,100079.81
2022-11-07T09:29:50.014Z,100071.78
2022-11-07T09:31:51.882Z,100075.28
2022-11-07T09:33:53.787Z,100078.97
2022-11-07T09:35:59.679Z,100082.38
2022-11-07T09:38:01.566Z,100077.72
2022-11-07T09:40:04.180Z,100077.84
2022-11-07T09:42:39.708Z,100071.88
2022-11-07T09:44:57.587Z,100076.16
2022-11-07T09:47:11.510Z,100076.91
2022-11-07T09:49:42.565Z,100073.97
2022-11-07T09:52:03.434Z,100074.41
2022-11-07T09:54:11.576Z,100067.00
2022-11-07T09:56:14.665Z,100074.91
2022-11-07T09:58:38.191Z,100068.03
2022-11-07T10:00:40.776Z,100074.91
2022-11-07T10:02:51.241Z,100067.44
2022-11-07T10:05:01.422Z,100068.03
2022-11-07T10:07:32.630Z,100067.16
2022-11-07T10:09:55.322Z,100074.63
2022-11-07T10:12:00.271Z,100064.56
2022-11-07T10:14:13.390Z,100057.84
2022-11-07T10:16:24.007Z,100057.84
2022-11-07T10:18:34.798Z,100056.63
2022-11-07T10:21:16.191Z,100065.53
2022-11-07T10:23:41.565Z,100055.03
2022-11-07T10:25:55.209Z,100062.03
2022-11-07T10:28:13.342Z,100054.13
2022-11-07T10:30:19.080Z,100047.28
2022-11-07T10:32:23.348Z,100053.03
2022-11-07T10:34:43.100Z,100052.31
2022-11-07T10:36:45.097Z,100057.41
2022-11-07T10:38:47.042Z,100056.53
2022-11-07T10:40:54.274Z,100049.06
2022-11-07T10:42:57.767Z,100051.03
2022-11-07T10:45:02.794Z,100044.75
2022-11-07T10:47:15.969Z,100044.09
2022-11-07T10:49:32.650Z,100040.38
2022-11-07T10:51:40.409Z,100045.88
2022-11-07T10:53:48.121Z,100040.38
2022-11-07T10:55:52.370Z,100042.84
2022-11-07T10:58:04.350Z,100038.53
2022-11-07T11:00:23.144Z,100042.44
2022-11-07T11:02:27.106Z,100045.41
2022-11-07T11:04:32.695Z,100040.22
2022-11-07T11:06:34.656Z,100041.75
2022-11-07T11:08:38.579Z,100047.25
2022-11-07T11:10:40.898Z,100042.03
2022-11-07T11:12:46.384Z,100037.59
2022-11-07T11:14:49.885Z,100043.66
2022-11-07T11:16:56.554Z,100041.19
2022-11-07T11:19:01.218Z,100041.25
2022-11-07T11:21:40.713Z,100037.97
2022-11-07T11:23:45.395Z,100030.41
2022-11-07T11:25:50.295Z,100040.22
2022-11-07T11:28:02.818Z,100038.47
2022-11-07T11:30:20.674Z,100038.53
2022-11-07T11:32:35.442Z,100036.56
2022-11-07T11:34:40.503Z,100039.06
2022-11-07T11:36:54.131Z,100032.72
2022-11-07T11:38:56.537Z,100038.88
2022-11-07T11:41:11.260Z,100038.31
2022-11-07T11:43:46.786Z,100032.25
2022-11-07T11:46:07.837Z,100036.56
2022-11-07T11:48:23.763Z,100034.50
2022-11-07T11:53:55.620Z,100031.78
2022-11-07T11:56:11.659Z,100029.25
2022-11-07T11:58:39.889Z,100026.22
2022-11-07T12:00:54.488Z,100031.06
2022-11-07T12:03:15.475Z,100030.66
2022-11-07T12:05:38.915Z,100030.03
2022-11-07T12:07:52.338Z,100030.84
2022-11-07T12:09:59.934Z,100023.03
2022-11-07T12:12:08.784Z,100032.72
2022-11-07T12:14:29.497Z,100027.47
2022-11-07T12:17:00.867Z,100024.94
2022-11-07T12:19:21.343Z,100024.59
2022-11-07T12:21:44.657Z,100023.97
2022-11-07T12:24:16.836Z,100020.22
2022-11-07T12:26:24.571Z,100020.47
2022-11-07T12:29:05.687Z,100012.91
2022-11-07T12:31:36.249Z,100018.03
2022-11-07T12:34:40.526Z,100015.44
2022-11-07T12:37:07.864Z,100020.09
2022-11-07T12:39:29.656Z,100020.81
2022-11-07T12:41:47.251Z,100018.09
2022-11-07T12:44:20.042Z,100019.19
2022-11-07T12:46:43.836Z,100015.97
2022-11-07T12:49:23.016Z,100018.03
2022-11-07T12:51:31.690Z,100015.56
2022-11-07T12:53:39.295Z,100020.97
2022-11-07T12:56:13.380Z,100022.00
2022-11-07T12:58:25.707Z,100019.13
2022-11-07T13:00:30.407Z,100021.69
2022-11-07T13:03:04.775Z,100020.88
2022-11-07T13:05:24.814Z,100019.28
2022-11-07T13:08:02.174Z,100016.84
2022-11-07T13:10:24.150Z,100020.56
2022-11-07T13:12:35.377Z,100025.13
2022-11-07T13:14:42.640Z,100023.34
2022-11-07T13:16:58.008Z,100028.59
2022-11-07T13:19:31.313Z,100032.28
2022-11-07T13:21:44.458Z,100034.13
2022-11-07T13:23:47.733Z,100025.13
2022-11-07T13:25:59.069Z,100029.25
2022-11-07T13:28:02.607Z,100036.03
2022-11-07T13:30:13.548Z,100033.25
2022-11-07T13:32:16.986Z,100038.66
2022-11-07T13:34:18.992Z,100039.69
2022-11-07T13:36:28.981Z,100038.88
2022-11-07T13:38:32.076Z,100037.06
2022-11-07T13:40:35.909Z,100037.13
2022-11-07T13:42:40.383Z,100039.59
2022-11-07T13:44:43.790Z,100042.31
2022-11-07T13:46:51.393Z,100035.16
2022-11-07T13:48:58.161Z,100032.59
2022-11-07T13:51:06.150Z,100034.41
2022-11-07T13:53:19.702Z,100036.19
2022-11-07T13:55:25.801Z,100033.38
2022-11-07T13:57:34.396Z,100045.00
2022-11-07T13:59:52.804Z,100041.44
2022-11-07T14:01:57.341Z,100035.22
2022-11-07T14:03:59.466Z,100041.59
2022-11-07T14:06:02.753Z,100036.97
2022-11-07T14:08:08.343Z,100042.47
2022-11-07T14:10:39.030Z,100036.19
2022-11-07T14:12:40.962Z,100037.06
2022-11-07T14:14:43.354Z,100026.28
2022-11-07T14:16:46.552Z,100023.50
2022-11-07T14:18:51.974Z,100039.75
2022-11-07T14:20:57.129Z,100030.59
2022-11-07T14:23:00.830Z,100031.06
2022-11-07T14:25:03.266Z,100028.22
2022-11-07T14:27:07.523Z,100031.56
2022-11-07T14:29:22.064Z,100035.53
2022-11-07T14:31:29.464Z,100029.78
2022-11-07T14:33:31.893Z,100033.25
2022-11-07T14:35:35.478Z,100027.25
2022-11-07T14:37:37.709Z,100031.63
2022-11-07T14:39:39.778Z,100029.91
2022-11-07T14:41:43.200Z,100031.69
2022-11-07T14:43:56.457Z,100024.88
2022-11-07T14:46:12.499Z,100025.81
2022-11-07T14:48:20.192Z,100019.97
2022-11-07T14:50:28.020Z,100022.28
2022-11-07T14:52:36.418Z,100027.63
2022-11-07T14:54:41.965Z,100027.41
2022-11-07T14:56:47.860Z,100035.69
2022-11-07T14:58:50.361Z,100030.94
2022-11-07T15:00:58.443Z,100027.47
2022-11-07T15:03:01.035Z,100024.72
2022-11-07T15:05:10.623Z,100030.19
2022-11-07T15:07:29.896Z,100031.38
2022-11-07T15:09:36.177Z,100024.53
2022-11-07T15:11:54.727Z,100031.88
2022-11-07T15:13:58.577Z,100026.28
2022-11-07T15:16:15.570Z,100023.84
2022-11-07T15:18:26.950Z,100017.13
2022-11-07T15:20:33.679Z,100018.97
2022-11-07T15:22:39.638Z,100020.66
2022-11-07T15:24:44.219Z,100008.75
2022-11-07T15:26:46.442Z,100016.50
2022-11-07T15:28:53.109Z,100016.00
2022-11-07T15:31:00.038Z,100019.34
2022-11-07T15:33:02.268Z,100013.28
2022-11-07T15:35:43.633Z,100020.06
2022-11-07T15:37:37.501Z,100025.25
2022-11-07T15:39:39.606Z,100022.38
2022-11-07T15:41:41.633Z,100021.56
2022-11-07T15:43:44.359Z,100025.75
2022-11-07T15:45:48.216Z,100023.97
2022-11-07T15:47:51.092Z,100033.00
2022-11-07T15:49:53.192Z,100032.09
2022-11-07T15:51:55.419Z,100030.28
2022-11-07T15:53:57.784Z,100030.28
2022-11-07T15:56:01.668Z,100027.41
2022-11-07T15:58:03.851Z,100034.50
2022-11-07T16:00:06.545Z,100035.44
2022-11-07T16:02:17.376Z,100040.16
2022-11-07T16:04:19.675Z,100031.97
2022-11-07T16:06:29.201Z,100034.56
2022-11-07T16:08:31.430Z,100034.56
2022-11-07T16:10:33.810Z,100041.00
2022-11-07T16:12:36.016Z,100044.69
2022-11-07T16:14:43.848Z,100042.84
2022-11-07T16:16:48.579Z,100039.34
2022-11-07T16:18:53.425Z,100043.16
2022-11-07T16:20:55.493Z,100044.84
2022-11-07T16:22:57.417Z,100049.22
2022-11-07T16:24:59.514Z,100049.13
2022-11-07T16:27:01.892Z,100054.56
2022-11-07T16:29:04.118Z,100067.22
2022-11-07T16:31:06.228Z,100052.66
2022-11-07T16:33:11.161Z,100055.41
2022-11-07T16:35:13.559Z,100056.31
2022-11-07T16:37:15.994Z,100053.53
2022-11-07T16:39:23.467Z,100053.63
2022-11-07T16:41:25.707Z,100062.59
2022-11-07T16:43:27.883Z,100068.97
2022-11-07T16:45:29.868Z,100062.69
2022-11-07T16:47:32.798Z,100066.25
2022-11-07T16:49:34.790Z,100075.19
2022-11-07T16:51:36.860Z,100067.28
2022-11-07T16:53:38.769Z,100072.56
2022-11-07T16:55:47.181Z,100070.31
2022-11-07T16:57:51.558Z,100077.34
2022-11-07T16:59:53.706Z,100077.34
2022-11-07T17:01:55.934Z,100076.31
2022-11-07T17:03:57.913Z,100078.06
2022-11-07T17:06:02.429Z,100080.03
2022-11-07T17:08:14.709Z,100084.34
2022-11-07T17:10:17.883Z,100089.75
2022-11-07T17:12:22.830Z,100085.38
2022-11-07T17:14:24.871Z,100086.09
2022-11-07T17:16:30.080Z,100093.41
2022-11-07T17:18:34.666Z,100095.25
2022-11-07T17:20:52.487Z,100096.03
2022-11-07T17:22:54.779Z,100096.94
2022-11-07T17:24:56.788Z,100095.16
2022-11-07T17:26:59.403Z,100096.94
2022-11-07T17:29:02.224Z,100097.00
2022-11-07T17:31:04.571Z,100098.09
2022-11-07T17:33:06.651Z,100098.91
2022-11-07T17:35:31.146Z,100095.16
2022-11-07T17:37:31.511Z,100096.19
2022-11-07T17:39:33.859Z,100097.16
2022-11-07T17:41:35.950Z,100096.19
2022-11-07T17:43:38.036Z,100098.75
2022-11-07T17:45:40.953Z,100096.94
2022-11-07T17:47:43.158Z,100096.13
2022-11-07T17:49:46.307Z,100096.94
2022-11-07T17:51:48.423Z,100097.00
2022-11-07T17:53:50.691Z,100099.56
2022-11-07T17:55:52.758Z,100098.34
2022-11-07T17:57:54.980Z,100099.13
2022-11-07T17:59:57.008Z,100092.56
2022-11-07T18:05:53.631Z,100104.41
2022-11-07T18:07:55.553Z,100100.94
2022-11-07T18:09:57.588Z,100109.00
2022-11-07T18:13:14.862Z,100099.38
2022-11-07T18:15:17.042Z,100092.94
2022-11-07T18:17:44.184Z,100095.69
2022-11-07T18:19:47.963Z,100098.34
2022-11-07T18:21:50.011Z,100099.13
2022-11-07T18:23:52.210Z,100088.22
2022-11-07T18:26:20.628Z,100097.31
2022-11-07T18:28:22.758Z,100097.97
2022-11-07T18:30:24.859Z,100098.75
2022-11-07T18:32:29.257Z,100107.03
2022-11-07T18:34:35.060Z,100101.59
2022-11-07T18:36:38.673Z,100102.56
2022-11-07T18:38:40.802Z,100105.28
2022-11-07T18:40:42.635Z,100100.91
2022-11-07T18:42:46.196Z,100107.03
2022-11-07T18:44:48.265Z,100101.81
2022-11-07T18:46:50.818Z,100106.00
2022-11-07T18:48:52.806Z,100105.19
2022-11-07T18:50:57.209Z,100100.53
2022-11-07T18:53:01.599Z,100101.53
2022-11-07T18:55:04.218Z,100102.47
2022-11-07T18:57:06.594Z,100097.06
2022-11-07T18:59:08.772Z,100097.16
2022-11-07T19:01:15.400Z,100098.84
2022-11-07T19:03:18.036Z,100095.31
2022-11-07T19:05:20.644Z,100101.75
2022-11-07T19:07:22.597Z,100107.03
2022-11-07T19:09:27.225Z,100104.47
2022-11-07T19:11:31.354Z,100107.03
2022-11-07T19:13:38.925Z,100106.00
2022-11-07T19:15:40.919Z,100112.22
2022-11-07T19:17:43.067Z,100114.13
2022-11-07T19:19:45.340Z,100112.28
2022-11-07T19:21:47.403Z,100118.59
2022-11-07T19:23:53.404Z,100117.63
2022-11-07T19:25:55.928Z,100115.75
2022-11-07T19:27:58.640Z,100124.72
2022-11-07T19:31:03.874Z,100120.66
2022-11-07T19:33:08.295Z,100129.34
2022-11-07T19:35:10.655Z,100131.09
2022-11-07T19:37:12.959Z,100130.31
2022-11-07T19:39:15.201Z,100134.03
2022-11-07T19:41:18.040Z,100129.56
2022-11-07T19:43:20.353Z,100139.44
2022-11-07T19:45:26.546Z,100133.06
2022-11-07T19:47:30.974Z,100138.56
2022-11-07T19:49:33.203Z,100137.63
2022-11-07T19:51:36.524Z,100140.31
2022-11-07T19:53:38.878Z,100135.78
2022-11-07T19:55:41.085Z,100135.78
2022-11-07T19:57:43.165Z,100135.72
2022-11-07T19:59:45.177Z,100134.25
2022-11-07T20:02:04.207Z,100136.91
2022-11-07T20:04:09.124Z,100141.28
2022-11-07T20:06:13.408Z,100138.56
2022-11-07T20:08:17.757Z,100134.97
2022-11-07T20:10:20.538Z,100140.31
2022-11-07T20:12:22.753Z,100139.44
2022-11-07T20:14:25.319Z,100137.63
2022-11-07T20:16:27.819Z,100138.47
2022-11-07T20:18:55.276Z,100139.81
2022-11-07T20:21:06.585Z,100136.00
2022-11-07T20:23:10.203Z,100141.34
2022-11-07T20:25:12.545Z,100136.66
2022-11-07T20:27:14.922Z,100139.72
2022-11-07T20:29:18.656Z,100133.44
2022-11-07T20:31:24.169Z,100138.78
2022-11-07T20:33:26.128Z,100136.66
2022-11-07T20:35:28.107Z,100142.72
2022-11-07T20:37:30.296Z,100140.81
2022-11-07T20:39:32.493Z,100142.72
2022-11-07T20:41:35.112Z,100146.34
2022-11-07T20:43:37.659Z,100144.56
2022-11-07T20:45:39.557Z,100142.88
2022-11-07T20:47:41.808Z,100144.78
2022-11-07T20:49:43.824Z,100149.31
2022-11-07T20:51:45.859Z,100151.22
2022-11-07T20:53:50.307Z,100145.78
2022-11-07T20:55:52.699Z,100144.06
2022-11-07T20:58:19.617Z,100152.53
2022-11-07T21:00:22.197Z,100154.16
2022-11-07T21:02:24.448Z,100148.88
2022-11-07T21:04:26.559Z,100146.97
2022-11-07T21:06:28.601Z,100145.94
2022-11-07T21:08:37.222Z,100146.09
2022-11-07T21:10:39.656Z,100141.56
2022-11-07T21:12:42.920Z,100153.25
2022-11-07T21:14:45.469Z,100151.53
2022-11-07T21:16:47.508Z,100149.03
2022-11-07T21:18:50.626Z,100145.38
2022-11-07T21:20:52.900Z,100139.88
2022-11-07T21:22:55.135Z,100139.97
2022-11-07T21:24:57.470Z,100130.06
2022-11-07T21:26:59.578Z,100139.22
2022-11-07T21:29:03.658Z,100137.13
2022-11-07T21:31:08.167Z,100137.28
2022-11-07T21:33:10.359Z,100147.19
2022-11-07T21:35:14.288Z,100150.81
2022-11-07T21:37:16.548Z,100141.66
2022-11-07T21:39:21.119Z,100141.72
2022-11-07T21:41:25.596Z,100141.56
2022-11-07T21:43:27.547Z,100135.22
2022-11-07T21:45:29.519Z,100136.25
2022-11-07T21:47:31.775Z,100138.03
2022-11-07T21:49:33.793Z,100142.81
2022-11-07T21:52:26.254Z,100141.28
2022-11-07T21:54:28.498Z,100141.66
2022-11-07T21:56:32.975Z,100135.28
2022-11-07T21:58:35.384Z,100144.38
2022-11-07T22:00:39.288Z,100148.09
2022-11-07T22:02:41.382Z,100146.09
2022-11-07T22:04:43.459Z,100141.66
2022-11-07T22:06:45.971Z,100148.00
2022-11-07T22:08:49.936Z,100150.00
2022-11-07T22:10:51.864Z,100151.72
2022-11-07T22:12:54.134Z,100149.84
2022-11-07T22:14:56.421Z,100143.06
2022-11-07T22:16:58.386Z,100141.00
2022-11-07T22:19:00.675Z,100142.09
2022-11-07T22:21:04.948Z,100138.34
2022-11-07T22:23:06.900Z,100142.69
2022-11-07T22:25:09.136Z,100145.44
2022-11-07T22:27:11.250Z,100140.84
2022-11-07T22:29:13.378Z,100148.09
2022-11-07T22:31:23.286Z,100145.38
2022-11-07T22:33:25.585Z,100144.63
2022-11-07T22:35:27.811Z,100143.06
2022-11-07T22:37:31.363Z,100138.66
2022-11-07T22:39:33.516Z,100142.16
2022-11-07T22:41:35.931Z,100136.97
2022-11-07T22:43:38.416Z,100131.63
2022-11-07T22:45:44.292Z,100130.59
2022-11-07T22:47:46.382Z,100136.16
2022-11-07T22:49:48.623Z,100132.59
2022-11-07T22:51:50.774Z,100131.63
2022-11-07T22:53:57.911Z,100132.50
2022-11-07T22:56:06.403Z,100143.16
2022-11-07T22:58:08.606Z,100143.53
2022-11-07T23:00:21.429Z,100148.72
2022-11-07T23:02:24.259Z,100143.47
2022-11-07T23:04:31.512Z,100146.13
2022-11-07T23:06:34.869Z,100146.13
2022-11-07T23:08:37.681Z,100147.84
2022-11-07T23:10:40.001Z,100145.31
2022-11-07T23:12:42.103Z,100141.72
2022-11-07T23:14:46.643Z,100149.75
2022-11-07T23:16:53.503Z,100151.59
2022-11-07T23:18:58.622Z,100146.19
2022-11-07T23:24:51.612Z,100153.56
2022-11-07T23:26:53.674Z,100155.38
2022-11-07T23:28:56.452Z,100152.56
2022-11-07T23:30:58.557Z,100156.28
2022-11-07T23:33:00.519Z,100164.47
2022-11-07T23:35:02.745Z,100151.66
2022-11-07T23:37:13.989Z,100158.03
2022-11-07T23:39:20.323Z,100156.28
2022-11-07T23:41:22.453Z,100168.84
2022-11-07T23:43:24.652Z,100164.41
2022-11-07T23:45:45.837Z,100162.63
2022-11-07T23:48:06.640Z,100174.31
2022-11-07T23:50:28.009Z,100172.56
2022-11-07T23:52:30.026Z,100181.56
2022-11-07T23:54:50.741Z,100183.41
2022-11-07T23:56:52.639Z,100181.66
2022-11-07T23:59:14.120Z,100181.78
